createdAt,value
2023-07-12T00:00:22.381Z,26.87
2023-07-12T00:03:03.252Z,26.72
2023-07-12T00:05:47.954Z,26.58
2023-07-12T00:08:33.340Z,27.20
2023-07-12T00:11:27.277Z,27.41
2023-07-12T00:14:09.117Z,27.44
2023-07-12T00:16:48.492Z,27.34
2023-07-12T00:19:25.761Z,27.28
2023-07-12T00:22:04.786Z,27.26
2023-07-12T00:24:41.581Z,27.29
2023-07-12T00:27:20.578Z,27.29
2023-07-12T00:29:57.479Z,27.31
2023-07-12T00:32:46.140Z,26.97
2023-07-12T00:35:25.883Z,27.35
2023-07-12T00:38:04.729Z,27.32
2023-07-12T00:41:12.483Z,27.62
2023-07-12T00:43:59.568Z,27.74
2023-07-12T00:46:53.403Z,27.46
2023-07-12T00:49:42.601Z,27.45
2023-07-12T00:52:22.320Z,27.32
2023-07-12T00:55:03.273Z,27.55
2023-07-12T00:57:33.248Z,27.33
2023-07-12T01:00:20.344Z,27.28
2023-07-12T01:03:14.474Z,27.12
2023-07-12T01:05:54.956Z,27.00
2023-07-12T01:08:35.514Z,27.13
2023-07-12T01:11:12.575Z,27.28
2023-07-12T01:13:58.826Z,27.33
2023-07-12T01:16:34.536Z,27.14
2023-07-12T01:19:18.124Z,27.06
2023-07-12T01:22:02.866Z,26.77
2023-07-12T01:24:47.213Z,27.13
2023-07-12T01:27:29.171Z,26.90
2023-07-12T01:30:08.378Z,26.94
2023-07-12T01:32:45.300Z,26.93
2023-07-12T01:35:26.567Z,27.01
2023-07-12T01:38:10.431Z,26.94
2023-07-12T01:40:50.076Z,26.79
2023-07-12T01:43:36.168Z,26.94
2023-07-12T01:46:15.049Z,26.73
2023-07-12T01:48:56.013Z,26.79
2023-07-12T01:51:48.198Z,26.77
2023-07-12T01:54:27.346Z,26.57
2023-07-12T01:57:08.562Z,26.48
2023-07-12T01:59:41.429Z,26.63
2023-07-12T02:02:20.212Z,26.69
2023-07-12T02:05:03.653Z,26.56
2023-07-12T02:07:41.958Z,26.49
2023-07-12T02:10:29.762Z,26.81
2023-07-12T02:13:13.094Z,26.77
2023-07-12T02:15:46.003Z,26.54
2023-07-12T02:18:21.890Z,26.71
2023-07-12T02:21:00.581Z,26.56
2023-07-12T02:23:36.047Z,26.39
2023-07-12T02:26:18.108Z,26.60
2023-07-12T02:28:56.604Z,26.54
2023-07-12T02:31:45.361Z,26.77
2023-07-12T02:34:29.360Z,26.69
2023-07-12T02:37:13.675Z,26.65
2023-07-12T02:39:43.752Z,26.43
2023-07-12T02:42:27.665Z,26.46
2023-07-12T02:45:14.212Z,26.47
2023-07-12T02:48:04.894Z,26.70
2023-07-12T02:50:46.167Z,26.79
2023-07-12T02:53:29.702Z,26.76
2023-07-12T02:56:21.605Z,26.68
2023-07-12T02:59:11.067Z,26.81
2023-07-12T03:01:54.711Z,26.80
2023-07-12T03:04:39.169Z,26.88
2023-07-12T03:07:09.402Z,26.94
2023-07-12T03:09:39.629Z,27.15
2023-07-12T03:12:15.370Z,27.16
2023-07-12T03:14:59.825Z,27.07
2023-07-12T03:17:42.809Z,27.17
2023-07-12T03:20:27.023Z,27.23
2023-07-12T03:23:08.474Z,27.15
2023-07-12T03:25:49.843Z,27.24
2023-07-12T03:28:34.091Z,27.39
2023-07-12T03:31:17.431Z,27.47
2023-07-12T03:34:01.185Z,27.57
2023-07-12T03:36:42.683Z,27.61
2023-07-12T03:39:28.167Z,27.87
2023-07-12T03:42:19.002Z,28.04
2023-07-12T03:44:57.677Z,28.21
2023-07-12T03:47:41.399Z,28.15
2023-07-12T03:50:24.456Z,28.23
2023-07-12T03:53:08.488Z,28.22
2023-07-12T03:55:54.183Z,28.17
2023-07-12T03:58:35.220Z,28.06
2023-07-12T04:01:05.042Z,28.29
2023-07-12T04:03:38.912Z,28.40
2023-07-12T04:06:27.681Z,28.22
2023-07-12T04:09:14.130Z,28.29
2023-07-12T04:11:51.871Z,28.27
2023-07-12T04:14:30.050Z,28.52
2023-07-12T04:17:10.627Z,28.68
2023-07-12T04:19:57.079Z,28.64
2023-07-12T04:22:29.491Z,28.86
2023-07-12T04:24:56.707Z,28.79
2023-07-12T04:27:38.662Z,28.72
2023-07-12T04:30:20.747Z,28.69
2023-07-12T04:33:08.090Z,28.81
2023-07-12T04:35:41.444Z,29.08
2023-07-12T04:38:14.054Z,29.17
2023-07-12T04:41:02.501Z,29.33
2023-07-12T04:43:46.548Z,29.37
2023-07-12T04:46:24.526Z,29.52
2023-07-12T04:49:08.361Z,29.50
2023-07-12T04:51:38.764Z,29.42
2023-07-12T04:54:22.848Z,29.67
2023-07-12T04:56:55.328Z,29.96
2023-07-12T04:59:55.277Z,29.75
2023-07-12T05:02:40.241Z,30.13
2023-07-12T05:05:31.657Z,30.28
2023-07-12T05:08:17.104Z,30.03
2023-07-12T05:11:10.066Z,30.10
2023-07-12T05:13:55.564Z,29.78
2023-07-12T05:16:37.251Z,29.92
2023-07-12T05:19:05.856Z,29.44
2023-07-12T05:21:41.359Z,29.90
2023-07-12T05:24:22.500Z,30.14
2023-07-12T05:27:02.306Z,29.71
2023-07-12T05:29:35.414Z,29.36
2023-07-12T05:32:14.372Z,29.43
2023-07-12T05:34:58.466Z,29.54
2023-07-12T05:37:45.141Z,29.17
2023-07-12T05:40:25.872Z,29.39
2023-07-12T05:43:06.801Z,29.40
2023-07-12T05:45:47.813Z,29.37
2023-07-12T05:48:21.276Z,29.67
2023-07-12T05:50:56.297Z,29.85
2023-07-12T05:53:33.581Z,29.66
2023-07-12T05:56:11.254Z,29.64
2023-07-12T05:58:51.615Z,29.27
2023-07-12T06:01:31.294Z,29.57
2023-07-12T06:04:01.014Z,29.57
2023-07-12T06:06:45.115Z,29.71
2023-07-12T06:09:29.567Z,29.89
2023-07-12T06:12:03.459Z,29.86
2023-07-12T06:14:43.574Z,29.98
2023-07-12T06:17:14.639Z,30.39
2023-07-12T06:19:56.727Z,31.19
2023-07-12T06:22:38.594Z,30.63
2023-07-12T06:25:20.543Z,30.22
2023-07-12T06:27:54.390Z,30.76
2023-07-12T06:30:35.714Z,31.29
2023-07-12T06:33:12.139Z,31.89
2023-07-12T06:35:49.955Z,32.34
2023-07-12T06:38:29.310Z,32.78
2023-07-12T06:41:09.218Z,32.81
2023-07-12T06:43:59.703Z,32.33
2023-07-12T06:46:38.082Z,33.12
2023-07-12T06:49:17.198Z,32.49
2023-07-12T06:51:58.890Z,32.54
2023-07-12T06:54:34.552Z,33.02
2023-07-12T06:57:07.540Z,33.42
2023-07-12T06:59:45.693Z,32.71
2023-07-12T07:02:21.652Z,33.17
2023-07-12T07:04:54.337Z,33.14
2023-07-12T07:07:35.587Z,33.40
2023-07-12T07:10:04.700Z,33.43
2023-07-12T07:12:37.274Z,33.18
2023-07-12T07:15:18.217Z,33.39
2023-07-12T07:18:02.891Z,34.16
2023-07-12T07:20:50.050Z,34.23
2023-07-12T07:23:23.145Z,34.94
2023-07-12T07:25:58.588Z,35.01
2023-07-12T07:28:39.012Z,34.82
2023-07-12T07:31:07.251Z,34.45
2023-07-12T07:33:45.455Z,34.04
2023-07-12T07:36:29.158Z,34.30
2023-07-12T07:39:10.597Z,34.85
2023-07-12T07:41:45.650Z,34.83
2023-07-12T07:44:23.665Z,34.97
2023-07-12T07:47:06.565Z,35.07
2023-07-12T07:49:45.150Z,35.41
2023-07-12T07:52:33.101Z,35.72
2023-07-12T07:55:03.027Z,35.29
2023-07-12T07:57:48.431Z,35.40
2023-07-12T08:00:36.504Z,36.13
2023-07-12T08:03:15.335Z,35.88
2023-07-12T08:05:53.766Z,36.30
2023-07-12T08:08:31.118Z,36.47
2023-07-12T08:11:12.451Z,36.23
2023-07-12T08:13:50.838Z,36.32
2023-07-12T08:16:35.071Z,35.95
2023-07-12T08:19:18.281Z,36.71
2023-07-12T08:21:57.956Z,36.28
2023-07-12T08:24:34.374Z,36.60
2023-07-12T08:27:08.689Z,36.62
2023-07-12T08:29:47.304Z,37.11
2023-07-12T08:32:14.557Z,37.22
2023-07-12T08:35:01.726Z,36.92
2023-07-12T08:37:42.996Z,37.60
2023-07-12T08:40:22.733Z,37.92
2023-07-12T08:42:49.929Z,37.96
2023-07-12T08:45:34.654Z,38.15
2023-07-12T08:48:21.720Z,38.25
2023-07-12T08:51:00.066Z,37.90
2023-07-12T08:53:34.695Z,37.68
2023-07-12T08:56:16.583Z,36.42
2023-07-12T08:58:47.192Z,37.06
2023-07-12T09:01:41.618Z,37.46
2023-07-12T09:04:29.191Z,37.73
2023-07-12T09:06:58.931Z,38.11
2023-07-12T09:09:37.389Z,37.70
2023-07-12T09:12:23.981Z,38.14
2023-07-12T09:15:02.078Z,38.27
2023-07-12T09:17:43.801Z,37.96
2023-07-12T09:20:53.683Z,38.07
2023-07-12T09:23:24.081Z,37.89
2023-07-12T09:26:11.883Z,38.56
2023-07-12T09:28:49.693Z,38.45
2023-07-12T09:31:33.978Z,38.26
2023-07-12T09:34:05.599Z,37.82
2023-07-12T09:37:02.041Z,37.75
2023-07-12T09:39:40.294Z,38.07
2023-07-12T09:42:29.207Z,37.12
2023-07-12T09:45:06.195Z,38.51
2023-07-12T09:47:52.430Z,38.16
2023-07-12T09:50:34.986Z,38.01
2023-07-12T09:53:23.171Z,38.59
2023-07-12T09:56:29.685Z,38.79
2023-07-12T09:59:29.684Z,38.37
2023-07-12T10:02:29.921Z,38.33
2023-07-12T10:05:17.338Z,39.02
2023-07-12T10:08:02.287Z,39.75
2023-07-12T10:10:50.989Z,39.08
2023-07-12T10:13:43.546Z,38.80
2023-07-12T10:16:27.721Z,39.11
2023-07-12T10:19:22.774Z,39.21
2023-07-12T10:21:57.169Z,38.25
2023-07-12T10:24:36.696Z,38.46
2023-07-12T10:27:22.369Z,38.57
2023-07-12T10:30:04.179Z,38.79
2023-07-12T10:32:55.928Z,38.83
2023-07-12T10:35:44.489Z,38.98
2023-07-12T10:38:20.965Z,39.42
2023-07-12T10:41:03.061Z,39.66
2023-07-12T10:43:39.482Z,39.18
2023-07-12T10:46:14.125Z,38.54
2023-07-12T10:48:56.202Z,39.12
2023-07-12T10:51:38.066Z,39.17
2023-07-12T10:54:40.473Z,39.30
2023-07-12T10:57:43.272Z,40.01
2023-07-12T11:00:32.524Z,39.50
2023-07-12T11:03:19.632Z,39.56
2023-07-12T11:06:18.601Z,39.96
2023-07-12T11:09:02.541Z,40.12
2023-07-12T11:11:57.199Z,40.54
2023-07-12T11:14:39.439Z,40.85
2023-07-12T11:17:10.610Z,40.50
2023-07-12T11:19:52.071Z,40.66
2023-07-12T11:23:01.570Z,41.00
2023-07-12T11:26:04.684Z,41.30
2023-07-12T11:28:50.030Z,41.30
2023-07-12T11:31:35.124Z,41.53
2023-07-12T11:34:19.782Z,41.42
2023-07-12T11:36:55.946Z,41.01
2023-07-12T11:39:34.451Z,40.90
2023-07-12T11:42:10.168Z,41.06
2023-07-12T11:44:48.142Z,40.96
2023-07-12T11:47:32.364Z,41.22
2023-07-12T11:50:11.327Z,41.61
2023-07-12T11:52:46.601Z,41.59
2023-07-12T11:55:29.877Z,40.90
2023-07-12T11:57:57.849Z,40.75
2023-07-12T12:00:39.874Z,40.75
2023-07-12T12:03:21.805Z,41.12
2023-07-12T12:06:03.142Z,40.89
2023-07-12T12:08:38.956Z,40.85
2023-07-12T12:11:12.928Z,40.62
2023-07-12T12:13:54.600Z,40.60
2023-07-12T12:16:30.795Z,40.64
2023-07-12T12:19:17.653Z,41.22
2023-07-12T12:22:08.506Z,41.45
2023-07-12T12:25:08.448Z,41.31
2023-07-12T12:27:46.965Z,41.26
2023-07-12T12:30:24.412Z,41.13
2023-07-12T12:33:12.464Z,41.33
2023-07-12T12:35:56.616Z,41.31
2023-07-12T12:38:37.880Z,41.81
2023-07-12T12:41:22.660Z,42.04
2023-07-12T12:44:34.594Z,41.78
2023-07-12T12:47:22.186Z,41.37
2023-07-12T12:59:46.347Z,41.72
2023-07-12T13:07:05.172Z,42.50
2023-07-12T13:18:15.617Z,41.90
2023-07-12T13:20:49.137Z,41.84
2023-07-12T13:23:37.919Z,42.33
2023-07-12T13:26:17.438Z,42.31
2023-07-12T13:28:47.775Z,42.04
2023-07-12T13:31:29.420Z,41.60
2023-07-12T13:34:14.983Z,41.63
2023-07-12T13:37:07.626Z,41.32
2023-07-12T13:39:46.461Z,41.32
2023-07-12T13:42:44.005Z,41.57
2023-07-12T13:45:17.503Z,41.36
2023-07-12T13:47:54.225Z,41.55
2023-07-12T13:50:31.436Z,40.78
2023-07-12T13:53:28.721Z,40.94
2023-07-12T13:56:01.503Z,41.27
2023-07-12T13:59:01.832Z,41.52
2023-07-12T14:01:45.222Z,41.84
2023-07-12T14:06:57.494Z,42.63
2023-07-12T14:09:40.608Z,42.90
2023-07-12T14:12:29.393Z,43.10
2023-07-12T14:15:25.378Z,43.54
2023-07-12T14:18:04.433Z,43.10
2023-07-12T14:20:49.835Z,43.26
2023-07-12T14:23:27.856Z,43.30
2023-07-12T14:26:03.838Z,43.40
2023-07-12T14:31:33.927Z,43.19
2023-07-12T14:34:15.260Z,43.47
2023-07-12T14:36:52.792Z,43.13
2023-07-12T14:39:37.083Z,43.07
2023-07-12T14:42:14.861Z,42.69
2023-07-12T14:44:50.986Z,42.87
2023-07-12T14:47:19.380Z,43.23
2023-07-12T14:49:51.985Z,43.34
2023-07-12T14:52:22.546Z,42.69
2023-07-12T14:55:01.675Z,42.60
2023-07-12T14:58:08.576Z,42.50
2023-07-12T15:00:32.592Z,42.45
2023-07-12T15:03:02.071Z,41.88
2023-07-12T15:05:46.063Z,41.96
2023-07-12T15:08:32.883Z,41.34
2023-07-12T15:11:04.895Z,41.92
2023-07-12T15:13:45.462Z,42.26
2023-07-12T15:16:18.177Z,42.31
2023-07-12T15:18:47.456Z,42.83
2023-07-12T15:21:33.825Z,43.08
2023-07-12T15:24:00.923Z,42.54
2023-07-12T15:26:37.299Z,42.94
2023-07-12T15:29:15.907Z,43.04
2023-07-12T15:31:46.077Z,42.58
2023-07-12T15:34:19.423Z,42.22
2023-07-12T15:36:50.007Z,42.17
2023-07-12T15:39:20.388Z,42.54
2023-07-12T15:42:05.140Z,42.19
2023-07-12T15:44:43.475Z,41.71
2023-07-12T15:47:21.088Z,42.48
2023-07-12T15:49:58.402Z,42.98
2023-07-12T15:52:31.916Z,42.83
2023-07-12T15:55:05.595Z,42.75
2023-07-12T15:57:47.288Z,42.79
2023-07-12T16:00:28.669Z,42.74
2023-07-12T16:03:01.966Z,42.82
2023-07-12T16:05:54.380Z,43.00
2023-07-12T16:08:36.365Z,42.70
2023-07-12T16:11:30.064Z,42.46
2023-07-12T16:14:14.670Z,42.08
2023-07-12T16:16:47.428Z,41.63
2023-07-12T16:19:20.772Z,41.00
2023-07-12T16:21:59.518Z,41.03
2023-07-12T16:24:34.803Z,40.67
2023-07-12T16:27:15.771Z,40.63
2023-07-12T16:29:52.818Z,40.45
2023-07-12T16:32:23.185Z,40.13
2023-07-12T16:35:06.208Z,39.98
2023-07-12T16:37:49.511Z,39.98
2023-07-12T16:40:24.787Z,39.92
2023-07-12T16:42:57.867Z,39.76
2023-07-12T16:45:33.256Z,39.62
2023-07-12T16:48:05.609Z,39.54
2023-07-12T16:50:48.138Z,39.68
2023-07-12T16:53:27.646Z,39.48
2023-07-12T16:56:10.012Z,39.44
2023-07-12T16:58:46.220Z,39.20
2023-07-12T17:01:21.437Z,39.03
2023-07-12T17:04:04.267Z,38.86
2023-07-12T17:06:38.198Z,38.57
2023-07-12T17:09:20.179Z,38.44
2023-07-12T17:11:51.695Z,38.32
2023-07-12T17:14:38.439Z,38.50
2023-07-12T17:17:14.268Z,38.22
2023-07-12T17:19:52.821Z,37.75
2023-07-12T17:22:31.435Z,37.86
2023-07-12T17:25:14.430Z,37.85
2023-07-12T17:27:47.248Z,37.53
2023-07-12T17:30:28.548Z,37.45
2023-07-12T17:33:10.625Z,37.54
2023-07-12T17:35:54.681Z,37.60
2023-07-12T17:38:25.046Z,37.48
2023-07-12T17:41:00.647Z,37.28
2023-07-12T17:43:32.661Z,37.31
2023-07-12T17:46:02.527Z,36.89
2023-07-12T17:48:43.088Z,36.86
2023-07-12T17:51:23.572Z,36.87
2023-07-12T17:53:54.720Z,36.70
2023-07-12T17:56:34.533Z,36.63
2023-07-12T17:59:20.082Z,36.60
2023-07-12T18:02:04.083Z,36.48
2023-07-12T18:04:39.711Z,36.23
2023-07-12T18:07:26.573Z,36.43
2023-07-12T18:10:03.246Z,36.29
2023-07-12T18:12:37.946Z,36.15
2023-07-12T18:15:28.157Z,36.05
2023-07-12T18:18:10.638Z,36.05
2023-07-12T18:20:46.762Z,35.96
2023-07-12T18:23:24.622Z,35.90
2023-07-12T18:28:39.288Z,35.47
2023-07-12T18:31:31.900Z,34.80
2023-07-12T18:34:03.400Z,34.73
2023-07-12T18:36:45.217Z,34.39
2023-07-12T18:39:23.163Z,34.21
2023-07-12T18:42:26.564Z,34.27
2023-07-12T18:44:59.354Z,34.44
2023-07-12T18:47:38.233Z,34.51
2023-07-12T18:50:22.277Z,34.61
2023-07-12T18:53:04.130Z,34.33
2023-07-12T18:55:45.647Z,34.17
2023-07-12T18:58:17.184Z,33.94
2023-07-12T19:00:50.272Z,34.13
2023-07-12T19:03:41.445Z,33.89
2023-07-12T19:06:23.042Z,33.62
2023-07-12T19:08:59.480Z,34.04
2023-07-12T19:12:10.179Z,34.21
2023-07-12T19:14:47.637Z,33.88
2023-07-12T19:17:28.888Z,33.60
2023-07-12T19:20:09.084Z,33.67
2023-07-12T19:22:39.649Z,33.59
2023-07-12T19:25:21.455Z,33.53
2023-07-12T19:27:54.860Z,33.53
2023-07-12T19:30:28.463Z,33.70
2023-07-12T19:33:16.123Z,33.34
2023-07-12T19:35:55.972Z,33.46
2023-07-12T19:38:42.900Z,33.16
2023-07-12T19:41:20.804Z,33.02
2023-07-12T19:44:01.008Z,33.21
2023-07-12T19:46:34.906Z,32.89
2023-07-12T19:49:20.912Z,32.44
2023-07-12T19:52:04.299Z,32.47
2023-07-12T19:54:46.757Z,32.49
2023-07-12T19:57:31.047Z,32.49
2023-07-12T20:00:07.122Z,32.48
2023-07-12T20:03:05.475Z,32.58
2023-07-12T20:05:41.244Z,32.60
2023-07-12T20:08:19.078Z,32.60
2023-07-12T20:11:00.031Z,32.42
2023-07-12T20:13:39.641Z,32.21
2023-07-12T20:16:27.929Z,32.00
2023-07-12T20:19:08.768Z,31.99
2023-07-12T20:21:44.386Z,31.93
2023-07-12T20:24:23.003Z,31.88
2023-07-12T20:27:03.394Z,31.69
2023-07-12T20:29:48.491Z,31.66
2023-07-12T20:32:27.058Z,31.46
2023-07-12T20:35:12.761Z,31.26
2023-07-12T20:37:49.164Z,31.18
2023-07-12T20:40:24.786Z,30.96
2023-07-12T20:42:55.716Z,30.96
2023-07-12T20:45:37.408Z,31.08
2023-07-12T20:48:11.458Z,31.03
2023-07-12T20:50:48.909Z,30.73
2023-07-12T20:53:24.794Z,30.67
2023-07-12T20:55:58.839Z,30.72
2023-07-12T20:58:37.034Z,30.70
2023-07-12T21:01:12.823Z,30.47
2023-07-12T21:03:57.333Z,30.71
2023-07-12T21:06:38.843Z,30.86
2023-07-12T21:09:14.797Z,30.84
2023-07-12T21:11:52.311Z,30.62
2023-07-12T21:14:32.726Z,30.27
2023-07-12T21:17:16.486Z,30.30
2023-07-12T21:19:57.911Z,30.14
2023-07-12T21:22:33.446Z,29.92
2023-07-12T21:25:00.842Z,29.99
2023-07-12T21:27:41.438Z,30.12
2023-07-12T21:30:27.232Z,30.05
2023-07-12T21:33:05.932Z,29.78
2023-07-12T21:35:58.645Z,29.85
2023-07-12T21:38:39.591Z,29.89
2023-07-12T21:41:18.683Z,29.92
2023-07-12T21:44:04.773Z,29.85
2023-07-12T21:46:46.468Z,29.78
2023-07-12T21:49:13.652Z,29.62
2023-07-12T21:51:49.109Z,29.94
2023-07-12T21:54:24.103Z,29.94
2023-07-12T21:56:59.196Z,30.01
2023-07-12T21:59:37.958Z,29.82
2023-07-12T22:02:21.185Z,29.98
2023-07-12T22:04:54.519Z,29.80
2023-07-12T22:07:40.810Z,29.35
2023-07-12T22:10:11.907Z,29.36
2023-07-12T22:12:48.712Z,29.40
2023-07-12T22:15:27.208Z,29.32
2023-07-12T22:18:06.813Z,29.38
2023-07-12T22:20:46.360Z,29.54
2023-07-12T22:23:24.941Z,29.45
2023-07-12T22:26:06.542Z,29.51
2023-07-12T22:28:45.498Z,29.43
2023-07-12T22:31:18.572Z,29.35
2023-07-12T22:33:54.518Z,29.45
2023-07-12T22:36:40.505Z,29.49
2023-07-12T22:39:26.712Z,29.34
2023-07-12T22:42:11.036Z,29.50
2023-07-12T22:44:48.980Z,29.33
2023-07-12T22:47:27.439Z,29.48
2023-07-12T22:50:12.497Z,29.61
2023-07-12T22:52:53.885Z,29.74
2023-07-12T22:55:32.043Z,29.85
2023-07-12T22:58:01.615Z,29.48
2023-07-12T23:00:47.699Z,29.49
2023-07-12T23:03:24.571Z,29.62
2023-07-12T23:06:14.144Z,29.56
2023-07-12T23:08:56.902Z,29.63
2023-07-12T23:11:29.634Z,29.52
2023-07-12T23:14:05.107Z,29.27
2023-07-12T23:16:42.076Z,29.29
2023-07-12T23:19:20.886Z,29.63
2023-07-12T23:22:04.858Z,29.70
2023-07-12T23:24:50.071Z,30.05
2023-07-12T23:27:33.936Z,29.68
2023-07-12T23:30:10.664Z,29.45
2023-07-12T23:32:53.671Z,29.61
2023-07-12T23:35:35.730Z,29.45
2023-07-12T23:38:18.633Z,29.29
2023-07-12T23:40:49.159Z,29.27
2023-07-12T23:43:22.891Z,29.09
2023-07-12T23:45:51.587Z,29.04
2023-07-12T23:48:39.108Z,29.09
2023-07-12T23:51:14.938Z,29.26
2023-07-12T23:53:58.162Z,29.26
2023-07-12T23:56:47.710Z,29.16
2023-07-12T23:59:30.693Z,28.82
